Time;durP1;ratioP1;P1;durP2;ratioP2;P2;SDS_P1;SDS_P2;PMS_P1;PMS_P2;Temp;Humidity;BMP_temperature;BMP_pressure;BME280_temperature;BME280_humidity;BME280_pressure;Samples;Min_cycle;Max_cycle;Signal;HPM_P1;HPM_P2
2021/12/15 00:02:12;;;;;;;27.77;17.55;;;;;;;;;;4974453;28;20054;-69
2021/12/15 00:04:57;;;;;;;26.58;18.73;;;;;;;;;;4926907;29;20465;-73
2021/12/15 00:07:42;;;;;;;30.98;19.38;;;;;;;;;;4920752;29;20046;-67
2021/12/15 00:10:29;;;;;;;30.98;19.65;;;;;;;;;;4942763;28;20046;-68
2021/12/15 00:13:16;;;;;;;33.53;19.73;;;;;;;;;;4948779;28;20035;-67
2021/12/15 00:16:01;;;;;;;34.47;21.33;;;;;;;;;;4948612;28;20030;-68
2021/12/15 00:18:46;;;;;;;31.70;19.20;;;;;;;;;;4914942;29;20122;-71
2021/12/15 00:21:32;;;;;;;33.83;20.50;;;;;;;;;;4958395;28;20433;-71
2021/12/15 00:24:17;;;;;;;38.33;23.67;;;;;;;;;;4958839;28;20046;-72
2021/12/15 00:27:03;;;;;;;36.20;22.70;;;;;;;;;;4978735;28;20038;-72
2021/12/15 00:29:48;;;;;;;32.25;21.85;;;;;;;;;;4976068;28;20073;-70
2021/12/15 00:32:34;;;;;;;39.35;22.85;;;;;;;;;;4952417;28;20124;-72
2021/12/15 00:35:20;;;;;;;36.17;22.02;;;;;;;;;;4968350;28;20037;-70
2021/12/15 00:38:06;;;;;;;39.88;25.30;;;;;;;;;;4949993;28;20110;-74
2021/12/15 00:40:51;;;;;;;41.53;28.60;;;;;;;;;;4947835;28;21434;-70
2021/12/15 00:43:37;;;;;;;38.40;24.20;;;;;;;;;;4984326;28;20037;-73
2021/12/15 00:46:23;;;;;;;33.70;23.45;;;;;;;;;;4982513;28;20058;-74
2021/12/15 00:49:08;;;;;;;36.58;24.25;;;;;;;;;;4980197;28;20108;-75
2021/12/15 00:51:54;;;;;;;36.00;23.08;;;;;;;;;;4978708;28;20035;-75
2021/12/15 00:54:40;;;;;;;36.35;23.70;;;;;;;;;;4937341;28;20474;-75
2021/12/15 00:57:26;;;;;;;36.20;23.05;;;;;;;;;;4946607;28;20170;-66
2021/12/15 01:00:13;;;;;;;38.97;24.15;;;;;;;;;;4958597;28;20031;-73
2021/12/15 01:02:59;;;;;;;39.08;23.98;;;;;;;;;;4943798;28;20043;-70
2021/12/15 01:05:46;;;;;;;39.90;23.48;;;;;;;;;;4946357;28;20032;-70
2021/12/15 01:08:33;;;;;;;37.03;23.38;;;;;;;;;;4917211;28;20118;-70
2021/12/15 01:11:27;;;;;;;37.67;23.13;;;;;;;;;;4926365;28;20031;-70
2021/12/15 01:20:26;;;;;;;34.33;21.83;;;;;;;;;;4943469;29;20122;-71
2021/12/15 01:23:13;;;;;;;;;;;;;;;;;;4947391;28;20049;-68
2021/12/15 01:26:00;;;;;;;39.10;22.00;;;;;;;;;;4910783;29;20249;-68
2021/12/15 01:28:46;;;;;;;32.47;20.05;;;;;;;;;;4953973;28;20109;-70
2021/12/15 01:31:31;;;;;;;28.15;17.52;;;;;;;;;;4968104;28;20035;-71
2021/12/15 01:34:17;;;;;;;31.45;19.30;;;;;;;;;;4970065;28;20038;-66
2021/12/15 01:37:02;;;;;;;31.02;19.48;;;;;;;;;;4956089;28;20081;-67
2021/12/15 01:39:53;;;;;;;30.70;19.02;;;;;;;;;;4939766;28;20125;-68
2021/12/15 01:42:38;;;;;;;31.25;19.55;;;;;;;;;;4926536;28;20039;-72
2021/12/15 01:48:27;;;;;;;33.85;21.85;;;;;;;;;;4901210;28;20143;-69
2021/12/15 01:51:13;;;;;;;33.72;18.83;;;;;;;;;;4913668;28;20046;-69
2021/12/15 01:53:58;;;;;;;30.77;19.13;;;;;;;;;;4906999;29;20036;-67
2021/12/15 01:56:44;;;;;;;30.65;20.05;;;;;;;;;;4906637;29;20068;-69
2021/12/15 01:59:30;;;;;;;31.90;19.80;;;;;;;;;;4938689;29;20553;-69
2021/12/15 02:02:15;;;;;;;34.33;20.83;;;;;;;;;;4893417;29;20037;-69
2021/12/15 02:05:01;;;;;;;32.47;20.13;;;;;;;;;;4871842;28;20049;-68
2021/12/15 02:07:47;;;;;;;33.15;21.23;;;;;;;;;;4879924;29;20103;-71
2021/12/15 02:10:36;;;;;;;32.50;20.13;;;;;;;;;;4906781;29;20038;-71
2021/12/15 02:13:21;;;;;;;27.35;18.80;;;;;;;;;;4934426;28;20036;-70
2021/12/15 02:16:07;;;;;;;28.60;18.70;;;;;;;;;;4935928;28;20434;-73
2021/12/15 02:18:52;;;;;;;32.15;19.83;;;;;;;;;;4949611;28;20031;-72
2021/12/15 02:21:37;;;;;;;30.70;20.08;;;;;;;;;;4957696;28;20037;-72
2021/12/15 02:24:23;;;;;;;30.30;19.52;;;;;;;;;;4959335;28;20114;-72
2021/12/15 02:27:11;;;;;;;28.65;18.27;;;;;;;;;;4951061;28;20027;-74
2021/12/15 02:30:03;;;;;;;33.40;19.73;;;;;;;;;;4941607;28;20046;-73
2021/12/15 02:33:05;;;;;;;30.23;18.67;;;;;;;;;;4937581;28;20039;-68
2021/12/15 02:38:56;;;;;;;29.05;19.67;;;;;;;;;;4940608;28;20027;-68
2021/12/15 02:41:44;;;;;;;33.15;20.02;;;;;;;;;;4954048;28;20080;-69
2021/12/15 02:44:29;;;;;;;28.15;19.67;;;;;;;;;;4935798;28;20042;-69
2021/12/15 02:47:18;;;;;;;30.10;19.20;;;;;;;;;;4931049;28;20586;-69
2021/12/15 02:50:05;;;;;;;26.27;16.88;;;;;;;;;;4966616;28;20035;-68
2021/12/15 02:52:51;;;;;;;26.77;17.35;;;;;;;;;;4949827;28;20042;-72
2021/12/15 02:55:37;;;;;;;28.73;18.25;;;;;;;;;;4933148;28;20035;-73
2021/12/15 02:58:23;;;;;;;26.65;18.73;;;;;;;;;;4938103;28;20506;-73
2021/12/15 03:01:17;;;;;;;31.85;18.95;;;;;;;;;;4972773;28;20038;-73
2021/12/15 03:07:11;;;;;;;31.80;18.05;;;;;;;;;;4961421;28;20039;-66
2021/12/15 03:16:05;;;;;;;25.35;17.05;;;;;;;;;;4961278;28;20034;-69
2021/12/15 03:18:50;;;;;;;23.38;15.85;;;;;;;;;;4933868;28;20049;-70
2021/12/15 03:21:36;;;;;;;24.83;15.65;;;;;;;;;;4965196;28;20042;-69
2021/12/15 03:24:23;;;;;;;22.30;14.43;;;;;;;;;;4974517;28;20402;-72
2021/12/15 03:27:15;;;;;;;19.13;11.25;;;;;;;;;;4959603;28;20109;-68
2021/12/15 03:33:34;;;;;;;16.90;9.20;;;;;;;;;;4956553;28;20106;-71
2021/12/15 03:36:35;;;;;;;20.38;12.30;;;;;;;;;;4947887;28;20189;-70
2021/12/15 03:39:21;;;;;;;18.27;12.52;;;;;;;;;;4967844;28;20039;-70
2021/12/15 03:42:08;;;;;;;20.35;12.57;;;;;;;;;;4945707;28;20536;-68
2021/12/15 03:44:54;;;;;;;18.63;12.30;;;;;;;;;;4962765;28;20065;-65
2021/12/15 03:47:41;;;;;;;23.20;15.88;;;;;;;;;;4964242;28;20066;-68
2021/12/15 03:50:29;;;;;;;22.70;16.08;;;;;;;;;;4904664;28;20031;-68
2021/12/15 03:53:15;;;;;;;24.13;15.57;;;;;;;;;;4955801;28;20184;-69
2021/12/15 03:56:02;;;;;;;23.98;15.82;;;;;;;;;;4924483;28;20046;-70
2021/12/15 03:58:47;;;;;;;25.20;17.00;;;;;;;;;;4937311;28;20042;-70
2021/12/15 04:01:33;;;;;;;25.02;16.77;;;;;;;;;;4923394;28;20482;-70
2021/12/15 04:04:18;;;;;;;21.95;14.52;;;;;;;;;;4918889;28;20049;-70
2021/12/15 04:07:04;;;;;;;20.80;13.27;;;;;;;;;;4925424;29;20039;-70
2021/12/15 04:09:51;;;;;;;20.67;12.82;;;;;;;;;;4933632;29;20035;-70
2021/12/15 04:12:36;;;;;;;17.63;10.30;;;;;;;;;;4908725;29;20047;-69
2021/12/15 04:18:10;;;;;;;13.18;8.82;;;;;;;;;;4900033;29;20028;-68
2021/12/15 04:20:55;;;;;;;11.65;7.18;;;;;;;;;;4927603;28;20078;-67
2021/12/15 04:23:40;;;;;;;13.10;8.40;;;;;;;;;;4930824;28;22811;-66
2021/12/15 04:26:26;;;;;;;9.55;5.93;;;;;;;;;;4928090;28;20046;-68
2021/12/15 04:29:12;;;;;;;11.38;6.90;;;;;;;;;;4932680;28;20038;-69
2021/12/15 04:32:06;;;;;;;8.88;4.75;;;;;;;;;;4918148;29;20032;-69
2021/12/15 04:34:52;;;;;;;9.02;5.57;;;;;;;;;;4869492;29;20481;-68
2021/12/15 04:37:37;;;;;;;8.85;5.32;;;;;;;;;;4913667;29;20035;-67
2021/12/15 04:40:23;;;;;;;12.70;7.78;;;;;;;;;;4943943;29;20031;-69
2021/12/15 04:43:08;;;;;;;12.15;7.28;;;;;;;;;;4931634;28;20049;-68
2021/12/15 04:45:54;;;;;;;9.57;5.32;;;;;;;;;;4935567;28;20072;-68
2021/12/15 04:48:40;;;;;;;11.75;7.10;;;;;;;;;;4959796;28;20035;-69
2021/12/15 04:51:25;;;;;;;10.55;5.90;;;;;;;;;;4941380;28;20050;-69
2021/12/15 04:54:11;;;;;;;10.48;6.78;;;;;;;;;;4942359;28;20104;-70
2021/12/15 04:56:57;;;;;;;14.68;8.73;;;;;;;;;;4940375;28;20039;-71
2021/12/15 04:59:42;;;;;;;10.30;6.35;;;;;;;;;;4934614;28;20394;-70
2021/12/15 05:02:28;;;;;;;10.90;7.13;;;;;;;;;;4906631;29;20020;-71
2021/12/15 05:05:14;;;;;;;8.40;5.13;;;;;;;;;;4904046;28;20420;-70
2021/12/15 05:08:00;;;;;;;9.18;5.82;;;;;;;;;;4897719;29;20668;-71
2021/12/15 05:10:45;;;;;;;7.53;5.32;;;;;;;;;;4895473;29;20032;-72
2021/12/15 05:13:31;;;;;;;8.52;4.97;;;;;;;;;;4895623;29;20044;-72
2021/12/15 05:16:17;;;;;;;8.98;5.82;;;;;;;;;;4915740;29;20049;-70
2021/12/15 05:19:02;;;;;;;8.00;5.10;;;;;;;;;;4925560;28;20084;-71
2021/12/15 05:21:50;;;;;;;11.25;6.43;;;;;;;;;;4932190;28;20047;-71
2021/12/15 05:24:35;;;;;;;9.73;6.00;;;;;;;;;;4934234;28;20478;-71
2021/12/15 05:27:21;;;;;;;9.63;6.30;;;;;;;;;;4919014;29;20075;-68
2021/12/15 05:30:07;;;;;;;8.82;5.55;;;;;;;;;;4885257;29;20043;-68
2021/12/15 05:32:52;;;;;;;8.25;5.57;;;;;;;;;;4882689;29;20037;-69
2021/12/15 05:35:37;;;;;;;10.18;6.50;;;;;;;;;;4860250;29;20560;-66
2021/12/15 05:38:24;;;;;;;8.65;5.65;;;;;;;;;;4848035;29;20383;-73
2021/12/15 05:41:09;;;;;;;8.82;5.78;;;;;;;;;;4858032;29;20381;-72
2021/12/15 05:43:54;;;;;;;9.57;6.43;;;;;;;;;;4849860;29;20409;-74
2021/12/15 05:46:40;;;;;;;9.20;6.25;;;;;;;;;;4878024;29;20439;-75
2021/12/15 05:49:25;;;;;;;10.68;5.93;;;;;;;;;;4889597;29;20092;-72
2021/12/15 05:52:11;;;;;;;9.70;6.38;;;;;;;;;;4945511;28;20371;-67
2021/12/15 05:54:57;;;;;;;9.00;5.43;;;;;;;;;;4934868;28;20487;-67
2021/12/15 05:57:42;;;;;;;11.57;6.85;;;;;;;;;;4936867;28;20066;-69
2021/12/15 06:00:29;;;;;;;11.48;7.38;;;;;;;;;;4928848;29;20107;-68
2021/12/15 06:03:14;;;;;;;10.77;7.18;;;;;;;;;;4863037;29;20041;-68
2021/12/15 06:06:00;;;;;;;11.30;7.72;;;;;;;;;;4861346;29;20041;-69
2021/12/15 06:08:45;;;;;;;9.25;6.57;;;;;;;;;;4858329;29;20299;-67
2021/12/15 06:11:31;;;;;;;9.85;6.93;;;;;;;;;;4871325;29;20024;-69
2021/12/15 06:14:23;;;;;;;12.55;7.95;;;;;;;;;;4816661;29;20113;-72
2021/12/15 06:17:10;;;;;;;11.88;6.97;;;;;;;;;;4848325;29;20070;-72
2021/12/15 06:19:56;;;;;;;8.88;6.00;;;;;;;;;;4864890;29;20048;-72
2021/12/15 06:22:44;;;;;;;12.10;7.43;;;;;;;;;;4897998;29;20530;-72
2021/12/15 06:25:29;;;;;;;11.32;6.97;;;;;;;;;;4877904;29;20048;-71
2021/12/15 06:28:15;;;;;;;11.77;6.57;;;;;;;;;;4901217;29;20039;-74
2021/12/15 06:31:00;;;;;;;11.23;7.38;;;;;;;;;;4901675;29;20040;-70
2021/12/15 06:33:46;;;;;;;11.27;7.72;;;;;;;;;;4907435;29;20404;-70
2021/12/15 06:36:33;;;;;;;11.60;8.18;;;;;;;;;;4902531;29;20491;-70
2021/12/15 06:39:18;;;;;;;12.40;7.93;;;;;;;;;;4953361;28;20070;-70
2021/12/15 06:42:04;;;;;;;11.05;7.45;;;;;;;;;;4937234;28;20107;-70
2021/12/15 06:44:49;;;;;;;12.50;8.35;;;;;;;;;;4916855;29;20057;-71
2021/12/15 06:59:55;;;;;;;11.75;7.60;;;;;;;;;;4887112;29;20039;-68
2021/12/15 07:02:40;;;;;;;11.38;6.53;;;;;;;;;;4891014;29;21871;-71
2021/12/15 07:05:27;;;;;;;11.93;7.88;;;;;;;;;;4899733;29;20046;-70
2021/12/15 07:08:12;;;;;;;13.32;8.70;;;;;;;;;;4867050;29;20032;-77
2021/12/15 07:10:59;;;;;;;12.40;9.05;;;;;;;;;;4857175;29;20082;-68
2021/12/15 07:13:45;;;;;;;12.63;9.70;;;;;;;;;;4924313;29;20051;-71
2021/12/15 07:16:32;;;;;;;13.38;9.48;;;;;;;;;;4919268;28;20114;-69
2021/12/15 07:19:32;;;;;;;11.50;7.53;;;;;;;;;;4955011;28;20038;-71
2021/12/15 07:22:32;;;;;;;12.13;8.50;;;;;;;;;;4894690;29;20082;-71
2021/12/15 07:25:17;;;;;;;12.23;7.78;;;;;;;;;;4904380;28;20106;-70
2021/12/15 07:28:03;;;;;;;15.35;10.10;;;;;;;;;;4926271;28;20070;-74
2021/12/15 07:30:48;;;;;;;12.85;8.90;;;;;;;;;;4852115;29;20636;-72
2021/12/15 07:33:34;;;;;;;14.70;10.45;;;;;;;;;;4877458;29;20112;-71
2021/12/15 07:36:20;;;;;;;18.00;11.48;;;;;;;;;;4896576;29;20058;-71
2021/12/15 07:39:10;;;;;;;16.42;12.00;;;;;;;;;;4908521;29;20074;-70
2021/12/15 07:42:05;;;;;;;28.10;20.20;;;;;;;;;;4911466;29;20114;-71
2021/12/15 07:44:50;;;;;;;59.60;42.08;;;;;;;;;;4937896;28;20051;-68
2021/12/15 07:47:35;;;;;;;22.42;15.32;;;;;;;;;;4901566;29;20047;-74
2021/12/15 07:50:21;;;;;;;18.00;13.85;;;;;;;;;;4897731;29;20032;-72
2021/12/15 07:53:07;;;;;;;17.50;11.70;;;;;;;;;;4908184;29;20033;-74
2021/12/15 07:55:52;;;;;;;18.92;12.27;;;;;;;;;;4926958;29;20031;-72
2021/12/15 07:58:38;;;;;;;16.10;11.93;;;;;;;;;;4911522;29;20120;-73
2021/12/15 08:01:24;;;;;;;15.38;10.85;;;;;;;;;;4913159;29;20078;-70
2021/12/15 08:04:09;;;;;;;16.67;12.25;;;;;;;;;;4888813;29;20044;-75
2021/12/15 08:06:55;;;;;;;19.92;13.30;;;;;;;;;;4881174;29;20545;-75
2021/12/15 08:09:40;;;;;;;18.38;12.50;;;;;;;;;;4863809;29;20042;-77
2021/12/15 08:12:27;;;;;;;16.50;11.32;;;;;;;;;;4875301;29;20032;-75
2021/12/15 08:15:14;;;;;;;16.83;12.30;;;;;;;;;;4927692;28;21094;-78
2021/12/15 08:17:59;;;;;;;20.08;13.45;;;;;;;;;;4927466;29;20035;-77
2021/12/15 08:20:45;;;;;;;15.23;11.40;;;;;;;;;;4921247;29;20123;-70
2021/12/15 08:23:30;;;;;;;16.60;11.88;;;;;;;;;;4919158;29;20510;-74
2021/12/15 08:26:17;;;;;;;27.52;20.33;;;;;;;;;;4942114;28;20031;-74
2021/12/15 08:29:03;;;;;;;21.83;16.02;;;;;;;;;;4925622;28;20034;-75
2021/12/15 08:31:48;;;;;;;13.38;9.60;;;;;;;;;;4937678;28;20042;-69
2021/12/15 08:34:33;;;;;;;12.57;8.75;;;;;;;;;;4954487;28;20043;-66
2021/12/15 08:37:18;;;;;;;13.00;9.80;;;;;;;;;;4932779;28;20038;-66
2021/12/15 08:40:04;;;;;;;11.88;8.27;;;;;;;;;;4955115;28;20039;-73
2021/12/15 08:42:50;;;;;;;12.90;7.72;;;;;;;;;;4929745;29;20387;-73
2021/12/15 08:45:37;;;;;;;13.63;7.78;;;;;;;;;;4896243;29;20064;-71
2021/12/15 08:48:22;;;;;;;12.55;8.27;;;;;;;;;;4855688;29;20044;-69
2021/12/15 08:51:09;;;;;;;11.23;7.57;;;;;;;;;;4881464;29;20784;-70
2021/12/15 08:53:59;;;;;;;10.73;6.78;;;;;;;;;;4893046;29;20040;-71
2021/12/15 08:56:46;;;;;;;12.30;7.45;;;;;;;;;;4898354;29;20121;-65
2021/12/15 08:59:31;;;;;;;11.20;7.43;;;;;;;;;;4906518;28;20035;-66
2021/12/15 09:02:16;;;;;;;12.55;7.13;;;;;;;;;;4909391;28;20489;-63
2021/12/15 09:05:03;;;;;;;11.18;6.75;;;;;;;;;;4917641;29;20043;-63
2021/12/15 09:07:51;;;;;;;12.25;7.60;;;;;;;;;;4868006;29;20694;-65
2021/12/15 09:10:39;;;;;;;11.75;7.57;;;;;;;;;;4869377;29;21093;-66
2021/12/15 09:13:29;;;;;;;13.05;7.63;;;;;;;;;;4901211;29;20196;-70
2021/12/15 09:16:15;;;;;;;11.32;7.75;;;;;;;;;;4928744;28;20078;-74
2021/12/15 09:19:00;;;;;;;11.40;7.47;;;;;;;;;;4942782;28;20047;-69
2021/12/15 09:21:46;;;;;;;12.05;7.20;;;;;;;;;;4943109;28;20034;-67
2021/12/15 09:24:31;;;;;;;10.50;6.90;;;;;;;;;;4934714;29;20135;-69
2021/12/15 09:27:17;;;;;;;11.23;6.25;;;;;;;;;;4938662;28;20524;-65
2021/12/15 09:30:13;;;;;;;12.30;7.35;;;;;;;;;;4929062;28;20039;-68
2021/12/15 09:32:58;;;;;;;23.27;17.58;;;;;;;;;;4940846;28;20035;-63
2021/12/15 09:35:44;;;;;;;21.25;13.65;;;;;;;;;;4919797;29;20113;-70
2021/12/15 09:38:29;;;;;;;8.85;6.07;;;;;;;;;;4909792;29;20028;-65
2021/12/15 09:41:15;;;;;;;10.20;6.50;;;;;;;;;;4930198;28;20526;-64
2021/12/15 09:44:07;;;;;;;11.80;6.90;;;;;;;;;;4909724;29;20326;-64
2021/12/15 10:11:12;;;;;;;29.95;18.25;;;;;;;;;;4918875;28;20440;-70
2021/12/15 10:20:28;;;;;;;11.15;6.70;;;;;;;;;;4866639;28;20046;-67
2021/12/15 10:23:22;;;;;;;9.23;6.07;;;;;;;;;;4921280;29;20051;-66
2021/12/15 10:26:07;;;;;;;9.93;5.80;;;;;;;;;;4937267;28;20067;-65
2021/12/15 10:28:53;;;;;;;9.68;6.78;;;;;;;;;;4911671;29;20035;-74
2021/12/15 10:31:40;;;;;;;10.95;7.03;;;;;;;;;;4892107;29;20520;-67
2021/12/15 10:34:26;;;;;;;11.93;7.10;;;;;;;;;;4917862;29;20122;-69
2021/12/15 10:37:11;;;;;;;10.27;7.18;;;;;;;;;;4874991;29;20481;-65
2021/12/15 10:40:09;;;;;;;11.98;7.30;;;;;;;;;;4898071;29;20047;-65
2021/12/15 10:43:03;;;;;;;12.00;8.25;;;;;;;;;;4874606;29;20500;-64
2021/12/15 10:45:51;;;;;;;12.65;8.43;;;;;;;;;;4947535;28;20042;-67
2021/12/15 10:48:47;;;;;;;11.35;7.10;;;;;;;;;;4912812;29;20039;-68
2021/12/15 10:51:41;;;;;;;10.10;6.25;;;;;;;;;;4937310;28;20034;-70
2021/12/15 10:54:35;;;;;;;11.38;7.53;;;;;;;;;;4957837;28;20039;-69
2021/12/15 10:57:28;;;;;;;10.48;6.95;;;;;;;;;;4973434;28;20027;-69
2021/12/15 11:00:16;;;;;;;9.32;6.60;;;;;;;;;;4921537;29;20321;-71
2021/12/15 11:03:03;;;;;;;9.80;7.20;;;;;;;;;;4943563;28;20043;-71
2021/12/15 11:05:49;;;;;;;10.57;6.70;;;;;;;;;;4964656;28;20042;-67
2021/12/15 11:08:36;;;;;;;10.27;6.40;;;;;;;;;;4905019;29;20492;-69
2021/12/15 11:11:27;;;;;;;10.05;6.50;;;;;;;;;;4911616;29;20431;-67
2021/12/15 11:14:28;;;;;;;12.02;8.65;;;;;;;;;;4901092;29;20039;-67
2021/12/15 11:17:16;;;;;;;34.92;24.73;;;;;;;;;;4918121;29;20048;-66
2021/12/15 11:20:23;;;;;;;14.52;10.05;;;;;;;;;;4941609;28;20051;-68
2021/12/15 11:23:09;;;;;;;9.57;6.47;;;;;;;;;;4940753;28;20032;-67
2021/12/15 11:25:57;;;;;;;10.05;6.78;;;;;;;;;;4909866;29;20516;-68
2021/12/15 11:28:45;;;;;;;10.68;6.70;;;;;;;;;;4896082;29;20062;-66
2021/12/15 11:31:31;;;;;;;9.90;6.45;;;;;;;;;;4943121;28;20050;-64
2021/12/15 11:34:18;;;;;;;8.75;6.20;;;;;;;;;;4927860;29;20115;-65
2021/12/15 11:37:04;;;;;;;8.23;5.75;;;;;;;;;;4914295;29;20036;-64
2021/12/15 11:39:49;;;;;;;8.65;6.07;;;;;;;;;;4886044;29;20040;-63
2021/12/15 11:42:41;;;;;;;10.27;6.57;;;;;;;;;;4901692;28;20026;-63
2021/12/15 11:45:27;;;;;;;10.57;7.45;;;;;;;;;;4912183;28;20027;-64
2021/12/15 11:48:14;;;;;;;9.55;6.72;;;;;;;;;;4943103;28;20027;-62
2021/12/15 11:51:02;;;;;;;10.80;7.57;;;;;;;;;;4943157;28;20509;-62
2021/12/15 11:53:47;;;;;;;10.65;7.30;;;;;;;;;;4932833;28;20039;-62
2021/12/15 11:56:34;;;;;;;12.35;8.55;;;;;;;;;;4927402;28;20475;-62
2021/12/15 11:59:30;;;;;;;10.50;7.63;;;;;;;;;;4949279;28;20702;-65
2021/12/15 12:02:21;;;;;;;10.25;7.72;;;;;;;;;;4960825;28;20039;-72
2021/12/15 12:05:11;;;;;;;10.48;7.55;;;;;;;;;;4953104;28;20446;-70
2021/12/15 12:07:59;;;;;;;9.60;6.93;;;;;;;;;;4970006;28;20038;-69
2021/12/15 12:10:47;;;;;;;11.95;8.60;;;;;;;;;;4954690;28;20027;-71
2021/12/15 12:13:38;;;;;;;11.10;7.90;;;;;;;;;;4934738;28;20035;-68
2021/12/15 12:16:25;;;;;;;12.40;7.57;;;;;;;;;;4914464;28;20070;-69
2021/12/15 12:19:11;;;;;;;9.48;7.18;;;;;;;;;;4914462;28;20420;-69
2021/12/15 12:21:56;;;;;;;10.13;6.95;;;;;;;;;;4946839;28;20084;-70
2021/12/15 12:24:43;;;;;;;9.45;6.85;;;;;;;;;;4947004;28;20224;-69
2021/12/15 12:27:29;;;;;;;9.90;7.30;;;;;;;;;;4928233;28;20371;-67
2021/12/15 12:30:17;;;;;;;11.20;6.97;;;;;;;;;;4899769;29;20100;-71
2021/12/15 12:33:08;;;;;;;10.60;7.88;;;;;;;;;;4921358;28;20091;-69
2021/12/15 12:36:05;;;;;;;11.70;8.27;;;;;;;;;;4918868;28;20038;-69
2021/12/15 12:38:55;;;;;;;10.70;6.95;;;;;;;;;;4937569;29;20073;-68
2021/12/15 12:41:43;;;;;;;13.55;10.02;;;;;;;;;;4949394;28;20081;-70
2021/12/15 12:44:35;;;;;;;13.68;8.23;;;;;;;;;;4939319;28;20047;-69
2021/12/15 12:47:32;;;;;;;11.50;8.00;;;;;;;;;;4936148;28;20551;-69
2021/12/15 12:57:52;;;;;;;11.27;7.60;;;;;;;;;;4922922;28;20111;-68
2021/12/15 12:59:49;;;;;;;11.95;7.15;;;;;;;;;;4894986;29;20036;-63
2021/12/15 13:02:43;;;;;;;10.43;7.47;;;;;;;;;;4916922;29;20380;-63
2021/12/15 13:05:31;;;;;;;10.38;8.02;;;;;;;;;;4912279;29;20115;-67
2021/12/15 13:08:16;;;;;;;11.25;7.65;;;;;;;;;;4892412;29;20036;-67
2021/12/15 13:11:02;;;;;;;11.43;7.43;;;;;;;;;;4895265;29;20177;-66
2021/12/15 13:13:52;;;;;;;9.50;8.00;;;;;;;;;;4917651;28;20506;-68
2021/12/15 13:16:48;;;;;;;9.45;6.50;;;;;;;;;;4905547;29;20502;-67
2021/12/15 13:19:43;;;;;;;10.05;7.00;;;;;;;;;;4944419;28;20102;-65
2021/12/15 13:28:44;;;;;;;30.73;24.92;;;;;;;;;;4937641;28;20054;-63
2021/12/15 13:31:30;;;;;;;20.38;14.65;;;;;;;;;;4955275;28;20195;-63
2021/12/15 13:34:32;;;;;;;10.25;8.23;;;;;;;;;;4963735;28;20069;-63
2021/12/15 13:37:36;;;;;;;9.45;6.32;;;;;;;;;;4959733;28;20046;-69
2021/12/15 13:40:41;;;;;;;8.52;6.38;;;;;;;;;;4906341;29;20047;-63
2021/12/15 13:43:47;;;;;;;9.10;6.68;;;;;;;;;;4946771;28;20058;-64
2021/12/15 13:46:42;;;;;;;9.48;7.15;;;;;;;;;;4968890;28;20038;-62
2021/12/15 13:49:30;;;;;;;13.88;7.43;;;;;;;;;;4943485;28;20053;-62
2021/12/15 13:52:25;;;;;;;8.52;6.68;;;;;;;;;;4942081;28;20035;-67
2021/12/15 13:55:13;;;;;;;13.40;9.48;;;;;;;;;;4962448;28;20493;-64
2021/12/15 13:58:19;;;;;;;32.85;24.05;;;;;;;;;;4928497;29;20039;-66
2021/12/15 14:01:05;;;;;;;12.50;9.55;;;;;;;;;;4937366;28;20054;-65
2021/12/15 14:03:52;;;;;;;9.18;6.88;;;;;;;;;;4947318;28;20511;-67
2021/12/15 14:06:38;;;;;;;8.88;6.03;;;;;;;;;;4932606;28;20034;-68
2021/12/15 14:09:30;;;;;;;8.73;6.10;;;;;;;;;;4963135;28;20030;-63
2021/12/15 14:12:15;;;;;;;8.63;6.68;;;;;;;;;;4949276;28;20477;-69
2021/12/15 14:15:00;;;;;;;9.52;6.75;;;;;;;;;;4948693;28;20041;-68
2021/12/15 14:17:54;;;;;;;10.55;6.97;;;;;;;;;;4951037;28;20034;-67
2021/12/15 14:20:39;;;;;;;8.95;6.68;;;;;;;;;;4943386;28;20027;-68
2021/12/15 14:23:32;;;;;;;10.82;6.90;;;;;;;;;;4970406;28;20034;-69
2021/12/15 14:26:20;;;;;;;8.63;6.20;;;;;;;;;;4981079;28;20050;-69
2021/12/15 14:29:10;;;;;;;7.97;5.63;;;;;;;;;;4968996;28;20038;-67
2021/12/15 14:31:58;;;;;;;7.70;5.78;;;;;;;;;;4981798;28;20026;-68
2021/12/15 14:34:44;;;;;;;8.15;6.00;;;;;;;;;;4961092;28;20370;-68
2021/12/15 14:37:30;;;;;;;8.30;6.05;;;;;;;;;;4955966;28;20417;-66
2021/12/15 14:40:15;;;;;;;7.88;6.00;;;;;;;;;;4945574;28;20035;-70
2021/12/15 14:43:01;;;;;;;10.00;6.70;;;;;;;;;;4916331;28;20027;-65
2021/12/15 14:45:47;;;;;;;8.43;6.22;;;;;;;;;;4968064;28;20031;-67
2021/12/15 14:48:32;;;;;;;9.45;6.22;;;;;;;;;;4970064;28;20105;-65
2021/12/15 14:51:21;;;;;;;9.70;6.55;;;;;;;;;;4959711;28;20062;-68
2021/12/15 14:54:07;;;;;;;11.97;7.30;;;;;;;;;;4942030;28;20486;-66
2021/12/15 14:56:54;;;;;;;9.75;6.57;;;;;;;;;;4910936;29;20078;-65
2021/12/15 14:59:41;;;;;;;11.27;7.07;;;;;;;;;;4914144;29;20055;-66
2021/12/15 15:02:28;;;;;;;9.43;7.05;;;;;;;;;;4950178;28;20035;-69
2021/12/15 15:05:27;;;;;;;10.15;7.40;;;;;;;;;;4948820;28;20067;-68
2021/12/15 15:08:15;;;;;;;11.38;7.70;;;;;;;;;;4922343;28;20039;-64
2021/12/15 15:11:01;;;;;;;10.55;7.20;;;;;;;;;;4885711;29;20069;-66
2021/12/15 15:13:50;;;;;;;10.40;6.35;;;;;;;;;;4927306;28;20057;-66
2021/12/15 15:16:35;;;;;;;9.43;6.93;;;;;;;;;;4879600;28;20060;-64
2021/12/15 15:19:21;;;;;;;9.43;6.90;;;;;;;;;;4877373;29;20286;-67
2021/12/15 15:22:14;;;;;;;10.73;6.63;;;;;;;;;;4887136;29;20058;-68
2021/12/15 15:25:01;;;;;;;8.82;6.65;;;;;;;;;;4911239;29;20043;-71
2021/12/15 15:27:47;;;;;;;8.98;7.55;;;;;;;;;;4893418;29;20428;-71
2021/12/15 15:30:33;;;;;;;11.73;6.40;;;;;;;;;;4922882;28;20038;-70
2021/12/15 15:33:24;;;;;;;8.00;5.85;;;;;;;;;;4918158;29;20693;-70
2021/12/15 15:36:12;;;;;;;9.30;6.00;;;;;;;;;;4901107;29;20048;-70
2021/12/15 15:38:57;;;;;;;8.48;5.97;;;;;;;;;;4934633;29;20035;-70
2021/12/15 15:41:46;;;;;;;8.48;6.30;;;;;;;;;;4940765;28;20038;-68
2021/12/15 15:44:36;;;;;;;9.25;6.22;;;;;;;;;;4936212;28;20784;-69
2021/12/15 15:47:21;;;;;;;;;;;;;;;;;;4923348;28;20250;-66
2021/12/15 15:50:08;;;;;;;13.68;9.25;;;;;;;;;;4933529;29;19950;-68
2021/12/15 15:52:54;;;;;;;10.73;5.95;;;;;;;;;;4943310;28;20044;-68
2021/12/15 15:55:42;;;;;;;8.68;6.57;;;;;;;;;;4918987;29;20471;-69
2021/12/15 15:58:27;;;;;;;8.50;6.13;;;;;;;;;;4914386;29;20023;-69
2021/12/15 16:01:14;;;;;;;10.27;6.20;;;;;;;;;;4939358;28;20738;-71
2021/12/15 16:04:00;;;;;;;9.90;5.57;;;;;;;;;;4936816;28;20031;-72
2021/12/15 16:06:46;;;;;;;9.60;5.75;;;;;;;;;;4915195;29;20122;-67
2021/12/15 16:09:33;;;;;;;8.40;6.47;;;;;;;;;;4908386;29;20043;-70
2021/12/15 16:12:19;;;;;;;31.55;24.25;;;;;;;;;;4898479;29;20067;-67
2021/12/15 16:15:05;;;;;;;41.47;29.88;;;;;;;;;;4921711;28;20040;-66
2021/12/15 16:17:57;;;;;;;17.70;13.27;;;;;;;;;;4893965;29;20044;-64
2021/12/15 16:23:48;;;;;;;8.07;5.45;;;;;;;;;;4947446;28;20094;-71
2021/12/15 16:26:34;;;;;;;8.77;5.90;;;;;;;;;;4951924;28;20039;-72
2021/12/15 16:29:20;;;;;;;7.60;5.25;;;;;;;;;;4925459;28;20063;-70
2021/12/15 16:32:12;;;;;;;7.03;5.25;;;;;;;;;;4905016;29;20116;-72
2021/12/15 16:35:08;;;;;;;7.07;4.68;;;;;;;;;;4915375;29;20123;-73
2021/12/15 16:37:55;;;;;;;8.63;5.40;;;;;;;;;;4895625;29;20506;-63
2021/12/15 16:40:48;;;;;;;9.27;6.70;;;;;;;;;;4920645;28;20543;-65
2021/12/15 16:43:43;;;;;;;11.77;8.40;;;;;;;;;;4950944;28;20057;-65
2021/12/15 16:46:31;;;;;;;11.63;8.20;;;;;;;;;;4939000;29;20185;-66
2021/12/15 16:49:21;;;;;;;10.10;6.63;;;;;;;;;;4923023;29;20043;-66
2021/12/15 16:52:06;;;;;;;9.23;6.80;;;;;;;;;;4927945;29;20031;-63
2021/12/15 16:54:51;;;;;;;11.38;7.57;;;;;;;;;;4918908;29;20059;-67
2021/12/15 16:57:39;;;;;;;9.30;7.00;;;;;;;;;;4919778;29;20026;-67
2021/12/15 17:00:27;;;;;;;8.82;6.75;;;;;;;;;;4895274;29;20054;-66
2021/12/15 17:03:12;;;;;;;9.57;7.35;;;;;;;;;;4858735;29;20037;-68
2021/12/15 17:05:58;;;;;;;11.57;8.13;;;;;;;;;;4903625;29;20130;-67
2021/12/15 17:08:43;;;;;;;9.52;7.28;;;;;;;;;;4869418;29;20124;-70
2021/12/15 17:11:36;;;;;;;23.02;15.35;;;;;;;;;;4903552;28;20032;-71
2021/12/15 17:14:32;;;;;;;12.02;8.57;;;;;;;;;;4915992;29;20047;-67
2021/12/15 17:17:36;;;;;;;11.02;7.90;;;;;;;;;;4915299;29;20421;-67
2021/12/15 17:20:24;;;;;;;13.00;7.88;;;;;;;;;;4919314;28;20378;-67
2021/12/15 17:23:14;;;;;;;10.98;7.95;;;;;;;;;;4906752;28;21172;-68
2021/12/15 17:26:05;;;;;;;12.10;8.18;;;;;;;;;;4957160;28;20043;-68
2021/12/15 17:28:53;;;;;;;11.68;8.35;;;;;;;;;;4928077;29;20059;-67
2021/12/15 17:31:43;;;;;;;10.60;7.68;;;;;;;;;;4889805;29;20153;-71
2021/12/15 17:34:29;;;;;;;10.38;7.70;;;;;;;;;;4893888;29;20095;-68
2021/12/15 17:37:18;;;;;;;10.88;8.32;;;;;;;;;;4911132;29;20051;-69
2021/12/15 17:40:04;;;;;;;11.53;8.53;;;;;;;;;;4937325;28;20037;-67
2021/12/15 17:42:49;;;;;;;11.85;8.45;;;;;;;;;;4968340;28;20117;-72
2021/12/15 17:45:34;;;;;;;9.88;8.05;;;;;;;;;;4957224;28;20272;-69
2021/12/15 17:48:27;;;;;;;11.23;8.48;;;;;;;;;;4951701;28;20041;-69
2021/12/15 17:51:12;;;;;;;13.02;9.18;;;;;;;;;;4947158;28;20038;-65
2021/12/15 17:53:58;;;;;;;12.32;9.13;;;;;;;;;;4941020;28;20042;-71
2021/12/15 17:56:43;;;;;;;11.93;9.85;;;;;;;;;;4935223;28;20034;-69